sensor_id;sensor_type;location;lat;lon;timestamp;P1;durP1;ratioP1;P2;durP2;ratioP2
50709;SDS011;37033;49.994;21.992;2022-07-29T00:00:32;8.40;;;6.90;;
50709;SDS011;37033;49.994;21.992;2022-07-29T00:03:22;7.70;;;6.10;;
50709;SDS011;37033;49.994;21.992;2022-07-29T00:06:12;8.20;;;6.10;;
50709;SDS011;37033;49.994;21.992;2022-07-29T00:09:04;7.80;;;6.30;;
50709;SDS011;37033;49.994;21.992;2022-07-29T00:11:56;6.30;;;5.80;;
50709;SDS011;37033;49.994;21.992;2022-07-29T00:14:47;9.30;;;6.40;;
50709;SDS011;37033;49.994;21.992;2022-07-29T00:17:38;7.10;;;6.10;;
50709;SDS011;37033;49.994;21.992;2022-07-29T00:20:28;7.40;;;5.90;;
50709;SDS011;37033;49.994;21.992;2022-07-29T00:23:18;6.90;;;5.90;;
50709;SDS011;37033;49.994;21.992;2022-07-29T00:26:08;6.40;;;5.50;;
50709;SDS011;37033;49.994;21.992;2022-07-29T00:28:59;7.30;;;6.50;;
50709;SDS011;37033;49.994;21.992;2022-07-29T00:31:51;7.70;;;6.10;;
50709;SDS011;37033;49.994;21.992;2022-07-29T00:34:41;5.70;;;5.10;;
50709;SDS011;37033;49.994;21.992;2022-07-29T00:37:49;8.50;;;5.70;;
50709;SDS011;37033;49.994;21.992;2022-07-29T00:40:39;6.30;;;5.70;;
50709;SDS011;37033;49.994;21.992;2022-07-29T00:43:30;6.80;;;5.40;;
50709;SDS011;37033;49.994;21.992;2022-07-29T00:46:20;8.20;;;5.70;;
50709;SDS011;37033;49.994;21.992;2022-07-29T00:49:11;7.80;;;5.20;;
50709;SDS011;37033;49.994;21.992;2022-07-29T00:52:01;5.50;;;4.90;;
50709;SDS011;37033;49.994;21.992;2022-07-29T00:54:52;7.10;;;5.30;;
50709;SDS011;37033;49.994;21.992;2022-07-29T00:57:44;6.90;;;5.90;;
50709;SDS011;37033;49.994;21.992;2022-07-29T01:00:35;6.60;;;5.00;;
50709;SDS011;37033;49.994;21.992;2022-07-29T01:03:27;9.90;;;5.30;;
50709;SDS011;37033;49.994;21.992;2022-07-29T01:06:17;5.60;;;4.60;;
50709;SDS011;37033;49.994;21.992;2022-07-29T01:09:08;6.70;;;4.70;;
50709;SDS011;37033;49.994;21.992;2022-07-29T01:12:00;5.50;;;4.50;;
50709;SDS011;37033;49.994;21.992;2022-07-29T01:14:53;5.40;;;4.90;;
50709;SDS011;37033;49.994;21.992;2022-07-29T01:17:44;5.50;;;4.80;;
50709;SDS011;37033;49.994;21.992;2022-07-29T01:20:43;9.10;;;4.60;;
50709;SDS011;37033;49.994;21.992;2022-07-29T01:23:51;7.20;;;4.80;;
50709;SDS011;37033;49.994;21.992;2022-07-29T01:26:48;4.90;;;4.40;;
50709;SDS011;37033;49.994;21.992;2022-07-29T01:29:46;4.40;;;3.90;;
50709;SDS011;37033;49.994;21.992;2022-07-29T01:32:41;5.90;;;4.20;;
50709;SDS011;37033;49.994;21.992;2022-07-29T01:35:35;8.30;;;4.20;;
50709;SDS011;37033;49.994;21.992;2022-07-29T01:38:29;8.00;;;4.20;;
50709;SDS011;37033;49.994;21.992;2022-07-29T01:41:19;7.30;;;4.40;;
50709;SDS011;37033;49.994;21.992;2022-07-29T01:44:13;7.40;;;5.10;;
50709;SDS011;37033;49.994;21.992;2022-07-29T01:47:08;6.30;;;5.60;;
50709;SDS011;37033;49.994;21.992;2022-07-29T01:50:06;7.20;;;6.20;;
50709;SDS011;37033;49.994;21.992;2022-07-29T01:53:02;9.30;;;6.20;;
50709;SDS011;37033;49.994;21.992;2022-07-29T01:55:57;8.10;;;6.40;;
50709;SDS011;37033;49.994;21.992;2022-07-29T01:58:48;8.20;;;6.40;;
50709;SDS011;37033;49.994;21.992;2022-07-29T02:01:40;7.20;;;6.50;;
50709;SDS011;37033;49.994;21.992;2022-07-29T02:04:33;7.90;;;6.50;;
50709;SDS011;37033;49.994;21.992;2022-07-29T02:07:28;6.50;;;5.80;;
50709;SDS011;37033;49.994;21.992;2022-07-29T02:10:21;7.50;;;6.10;;
50709;SDS011;37033;49.994;21.992;2022-07-29T02:16:06;8.90;;;5.70;;
50709;SDS011;37033;49.994;21.992;2022-07-29T02:18:57;6.60;;;5.90;;
50709;SDS011;37033;49.994;21.992;2022-07-29T02:21:50;6.10;;;5.60;;
50709;SDS011;37033;49.994;21.992;2022-07-29T02:24:43;8.80;;;5.80;;
50709;SDS011;37033;49.994;21.992;2022-07-29T02:27:35;7.90;;;5.40;;
50709;SDS011;37033;49.994;21.992;2022-07-29T02:30:28;6.90;;;5.30;;
50709;SDS011;37033;49.994;21.992;2022-07-29T02:33:19;5.80;;;5.30;;
50709;SDS011;37033;49.994;21.992;2022-07-29T02:36:11;8.20;;;5.70;;
50709;SDS011;37033;49.994;21.992;2022-07-29T02:39:02;6.80;;;4.90;;
50709;SDS011;37033;49.994;21.992;2022-07-29T02:41:54;9.40;;;5.20;;
50709;SDS011;37033;49.994;21.992;2022-07-29T02:44:49;8.60;;;4.90;;
50709;SDS011;37033;49.994;21.992;2022-07-29T02:47:41;6.90;;;4.50;;
50709;SDS011;37033;49.994;21.992;2022-07-29T02:50:37;6.60;;;4.80;;
50709;SDS011;37033;49.994;21.992;2022-07-29T02:53:32;5.50;;;4.80;;
50709;SDS011;37033;49.994;21.992;2022-07-29T02:56:25;9.20;;;5.10;;
50709;SDS011;37033;49.994;21.992;2022-07-29T02:59:21;6.80;;;4.70;;
50709;SDS011;37033;49.994;21.992;2022-07-29T03:02:14;10.10;;;4.30;;
50709;SDS011;37033;49.994;21.992;2022-07-29T03:05:06;5.30;;;4.50;;
50709;SDS011;37033;49.994;21.992;2022-07-29T03:10:52;5.30;;;3.90;;
50709;SDS011;37033;49.994;21.992;2022-07-29T03:13:43;7.60;;;4.00;;
50709;SDS011;37033;49.994;21.992;2022-07-29T03:16:34;8.30;;;4.50;;
50709;SDS011;37033;49.994;21.992;2022-07-29T03:19:25;6.40;;;4.80;;
50709;SDS011;37033;49.994;21.992;2022-07-29T03:22:16;7.90;;;4.70;;
50709;SDS011;37033;49.994;21.992;2022-07-29T03:25:09;8.90;;;4.80;;
50709;SDS011;37033;49.994;21.992;2022-07-29T03:28:01;13.40;;;5.60;;
50709;SDS011;37033;49.994;21.992;2022-07-29T03:30:51;11.20;;;4.70;;
50709;SDS011;37033;49.994;21.992;2022-07-29T03:33:42;13.00;;;5.90;;
50709;SDS011;37033;49.994;21.992;2022-07-29T03:36:32;11.30;;;5.60;;
50709;SDS011;37033;49.994;21.992;2022-07-29T03:39:24;9.60;;;5.30;;
50709;SDS011;37033;49.994;21.992;2022-07-29T03:42:18;6.60;;;5.00;;
50709;SDS011;37033;49.994;21.992;2022-07-29T03:45:12;9.10;;;5.60;;
50709;SDS011;37033;49.994;21.992;2022-07-29T03:48:07;6.00;;;5.40;;
50709;SDS011;37033;49.994;21.992;2022-07-29T03:51:01;6.50;;;5.40;;
50709;SDS011;37033;49.994;21.992;2022-07-29T03:53:51;6.80;;;5.30;;
50709;SDS011;37033;49.994;21.992;2022-07-29T03:56:42;4.70;;;3.70;;
50709;SDS011;37033;49.994;21.992;2022-07-29T03:59:34;4.90;;;3.30;;
50709;SDS011;37033;49.994;21.992;2022-07-29T04:02:25;3.90;;;3.50;;
50709;SDS011;37033;49.994;21.992;2022-07-29T04:05:16;6.80;;;3.50;;
50709;SDS011;37033;49.994;21.992;2022-07-29T04:08:08;5.50;;;4.40;;
50709;SDS011;37033;49.994;21.992;2022-07-29T04:10:58;3.70;;;2.90;;
50709;SDS011;37033;49.994;21.992;2022-07-29T04:13:49;3.50;;;2.50;;
50709;SDS011;37033;49.994;21.992;2022-07-29T04:16:39;7.00;;;2.80;;
50709;SDS011;37033;49.994;21.992;2022-07-29T04:19:30;7.30;;;2.80;;
50709;SDS011;37033;49.994;21.992;2022-07-29T04:22:21;6.40;;;2.40;;
50709;SDS011;37033;49.994;21.992;2022-07-29T04:25:12;5.40;;;2.60;;
50709;SDS011;37033;49.994;21.992;2022-07-29T04:28:02;7.60;;;2.80;;
50709;SDS011;37033;49.994;21.992;2022-07-29T04:30:53;6.10;;;2.70;;
50709;SDS011;37033;49.994;21.992;2022-07-29T04:33:43;4.30;;;3.10;;
50709;SDS011;37033;49.994;21.992;2022-07-29T04:36:34;6.20;;;2.70;;
50709;SDS011;37033;49.994;21.992;2022-07-29T04:39:25;5.70;;;3.20;;
50709;SDS011;37033;49.994;21.992;2022-07-29T04:42:15;6.00;;;3.20;;
50709;SDS011;37033;49.994;21.992;2022-07-29T04:45:06;13.00;;;4.00;;
50709;SDS011;37033;49.994;21.992;2022-07-29T04:47:57;5.30;;;2.80;;
50709;SDS011;37033;49.994;21.992;2022-07-29T04:50:47;6.60;;;3.10;;
50709;SDS011;37033;49.994;21.992;2022-07-29T04:53:37;10.10;;;3.40;;
50709;SDS011;37033;49.994;21.992;2022-07-29T04:56:28;4.20;;;2.70;;
50709;SDS011;37033;49.994;21.992;2022-07-29T04:59:18;5.20;;;2.70;;
50709;SDS011;37033;49.994;21.992;2022-07-29T05:02:09;6.90;;;2.60;;
50709;SDS011;37033;49.994;21.992;2022-07-29T05:04:59;5.30;;;2.50;;
50709;SDS011;37033;49.994;21.992;2022-07-29T05:07:49;6.80;;;2.70;;
50709;SDS011;37033;49.994;21.992;2022-07-29T05:10:40;3.30;;;2.20;;
50709;SDS011;37033;49.994;21.992;2022-07-29T05:13:30;13.00;;;2.30;;
50709;SDS011;37033;49.994;21.992;2022-07-29T05:16:20;5.60;;;2.30;;
50709;SDS011;37033;49.994;21.992;2022-07-29T05:19:10;4.50;;;2.40;;
50709;SDS011;37033;49.994;21.992;2022-07-29T05:22:01;8.50;;;2.90;;
50709;SDS011;37033;49.994;21.992;2022-07-29T05:24:52;3.20;;;2.40;;
50709;SDS011;37033;49.994;21.992;2022-07-29T05:27:42;4.20;;;2.00;;
50709;SDS011;37033;49.994;21.992;2022-07-29T05:30:33;6.60;;;1.80;;
50709;SDS011;37033;49.994;21.992;2022-07-29T05:33:23;7.50;;;2.10;;
50709;SDS011;37033;49.994;21.992;2022-07-29T05:36:13;3.30;;;2.10;;
50709;SDS011;37033;49.994;21.992;2022-07-29T05:39:03;5.90;;;1.60;;
50709;SDS011;37033;49.994;21.992;2022-07-29T05:41:54;5.40;;;2.10;;
50709;SDS011;37033;49.994;21.992;2022-07-29T05:44:44;3.80;;;2.30;;
50709;SDS011;37033;49.994;21.992;2022-07-29T05:47:35;15.70;;;2.80;;
50709;SDS011;37033;49.994;21.992;2022-07-29T05:50:25;3.40;;;2.00;;
50709;SDS011;37033;49.994;21.992;2022-07-29T05:53:16;4.50;;;1.90;;
50709;SDS011;37033;49.994;21.992;2022-07-29T05:56:07;5.30;;;1.80;;
50709;SDS011;37033;49.994;21.992;2022-07-29T05:58:57;6.00;;;2.40;;
50709;SDS011;37033;49.994;21.992;2022-07-29T06:01:48;2.40;;;1.70;;
50709;SDS011;37033;49.994;21.992;2022-07-29T06:04:38;4.90;;;2.20;;
50709;SDS011;37033;49.994;21.992;2022-07-29T06:07:28;20.40;;;2.70;;
50709;SDS011;37033;49.994;21.992;2022-07-29T06:10:19;2.40;;;1.80;;
50709;SDS011;37033;49.994;21.992;2022-07-29T06:13:09;6.80;;;1.80;;
50709;SDS011;37033;49.994;21.992;2022-07-29T06:16:02;5.50;;;1.80;;
50709;SDS011;37033;49.994;21.992;2022-07-29T06:18:53;3.40;;;1.90;;
50709;SDS011;37033;49.994;21.992;2022-07-29T06:21:43;7.90;;;1.70;;
50709;SDS011;37033;49.994;21.992;2022-07-29T06:24:35;4.90;;;1.60;;
50709;SDS011;37033;49.994;21.992;2022-07-29T06:27:28;4.10;;;1.40;;
50709;SDS011;37033;49.994;21.992;2022-07-29T06:30:18;6.60;;;1.70;;
50709;SDS011;37033;49.994;21.992;2022-07-29T06:33:08;4.00;;;1.70;;
50709;SDS011;37033;49.994;21.992;2022-07-29T06:36:04;2.60;;;1.40;;
50709;SDS011;37033;49.994;21.992;2022-07-29T06:38:55;2.80;;;1.30;;
50709;SDS011;37033;49.994;21.992;2022-07-29T06:41:47;3.50;;;1.30;;
50709;SDS011;37033;49.994;21.992;2022-07-29T06:44:38;4.00;;;1.20;;
50709;SDS011;37033;49.994;21.992;2022-07-29T06:47:28;6.00;;;1.50;;
50709;SDS011;37033;49.994;21.992;2022-07-29T06:50:18;9.30;;;1.60;;
50709;SDS011;37033;49.994;21.992;2022-07-29T06:53:09;6.30;;;1.30;;
50709;SDS011;37033;49.994;21.992;2022-07-29T06:55:59;5.30;;;1.40;;
50709;SDS011;37033;49.994;21.992;2022-07-29T06:58:50;2.20;;;1.40;;
50709;SDS011;37033;49.994;21.992;2022-07-29T07:01:41;2.30;;;1.50;;
50709;SDS011;37033;49.994;21.992;2022-07-29T07:04:32;4.60;;;1.90;;
50709;SDS011;37033;49.994;21.992;2022-07-29T07:07:22;3.60;;;1.40;;
50709;SDS011;37033;49.994;21.992;2022-07-29T07:10:12;8.20;;;1.60;;
50709;SDS011;37033;49.994;21.992;2022-07-29T07:13:03;4.90;;;1.20;;
50709;SDS011;37033;49.994;21.992;2022-07-29T07:15:54;4.00;;;1.30;;
50709;SDS011;37033;49.994;21.992;2022-07-29T07:18:44;3.80;;;1.60;;
50709;SDS011;37033;49.994;21.992;2022-07-29T07:21:34;5.30;;;2.00;;
50709;SDS011;37033;49.994;21.992;2022-07-29T07:24:25;3.50;;;1.50;;
50709;SDS011;37033;49.994;21.992;2022-07-29T07:27:15;9.10;;;1.60;;
50709;SDS011;37033;49.994;21.992;2022-07-29T07:30:06;3.50;;;1.30;;
50709;SDS011;37033;49.994;21.992;2022-07-29T07:33:00;4.50;;;1.20;;
50709;SDS011;37033;49.994;21.992;2022-07-29T07:35:50;3.70;;;1.80;;
50709;SDS011;37033;49.994;21.992;2022-07-29T07:38:41;2.60;;;1.30;;
50709;SDS011;37033;49.994;21.992;2022-07-29T07:41:31;1.40;;;1.30;;
50709;SDS011;37033;49.994;21.992;2022-07-29T07:44:22;5.40;;;2.00;;
50709;SDS011;37033;49.994;21.992;2022-07-29T07:47:12;8.30;;;1.70;;
50709;SDS011;37033;49.994;21.992;2022-07-29T07:50:09;2.90;;;1.40;;
50709;SDS011;37033;49.994;21.992;2022-07-29T07:53:00;6.00;;;1.60;;
50709;SDS011;37033;49.994;21.992;2022-07-29T07:55:50;4.60;;;1.30;;
50709;SDS011;37033;49.994;21.992;2022-07-29T07:58:40;3.40;;;1.40;;
50709;SDS011;37033;49.994;21.992;2022-07-29T08:01:31;2.50;;;1.40;;
50709;SDS011;37033;49.994;21.992;2022-07-29T08:04:21;3.90;;;1.30;;
50709;SDS011;37033;49.994;21.992;2022-07-29T08:07:11;2.20;;;1.30;;
50709;SDS011;37033;49.994;21.992;2022-07-29T08:10:02;4.50;;;1.60;;
50709;SDS011;37033;49.994;21.992;2022-07-29T08:12:53;4.00;;;1.20;;
50709;SDS011;37033;49.994;21.992;2022-07-29T08:15:44;11.60;;;1.50;;
50709;SDS011;37033;49.994;21.992;2022-07-29T08:18:44;2.70;;;1.50;;
50709;SDS011;37033;49.994;21.992;2022-07-29T08:21:36;7.20;;;2.50;;
50709;SDS011;37033;49.994;21.992;2022-07-29T08:24:26;4.20;;;1.30;;
50709;SDS011;37033;49.994;21.992;2022-07-29T08:27:39;4.70;;;1.70;;
50709;SDS011;37033;49.994;21.992;2022-07-29T08:30:29;3.00;;;1.20;;
50709;SDS011;37033;49.994;21.992;2022-07-29T08:33:20;6.60;;;1.90;;
50709;SDS011;37033;49.994;21.992;2022-07-29T08:36:11;4.80;;;1.70;;
50709;SDS011;37033;49.994;21.992;2022-07-29T08:39:02;5.30;;;1.50;;
50709;SDS011;37033;49.994;21.992;2022-07-29T08:41:53;3.40;;;1.30;;
50709;SDS011;37033;49.994;21.992;2022-07-29T08:44:44;2.30;;;1.60;;
50709;SDS011;37033;49.994;21.992;2022-07-29T08:47:38;6.70;;;1.40;;
50709;SDS011;37033;49.994;21.992;2022-07-29T08:50:30;3.00;;;1.70;;
50709;SDS011;37033;49.994;21.992;2022-07-29T08:53:25;5.00;;;1.60;;
50709;SDS011;37033;49.994;21.992;2022-07-29T08:56:18;8.00;;;1.80;;
50709;SDS011;37033;49.994;21.992;2022-07-29T08:59:09;4.10;;;1.20;;
50709;SDS011;37033;49.994;21.992;2022-07-29T09:02:01;3.20;;;1.60;;
50709;SDS011;37033;49.994;21.992;2022-07-29T09:04:52;5.40;;;1.40;;
50709;SDS011;37033;49.994;21.992;2022-07-29T09:07:44;4.30;;;1.40;;
50709;SDS011;37033;49.994;21.992;2022-07-29T09:10:36;2.00;;;1.20;;
50709;SDS011;37033;49.994;21.992;2022-07-29T09:13:26;4.50;;;1.40;;
50709;SDS011;37033;49.994;21.992;2022-07-29T09:16:17;2.00;;;1.80;;
50709;SDS011;37033;49.994;21.992;2022-07-29T09:19:10;3.60;;;1.10;;
50709;SDS011;37033;49.994;21.992;2022-07-29T09:22:09;2.30;;;1.40;;
50709;SDS011;37033;49.994;21.992;2022-07-29T09:24:59;4.70;;;1.50;;
50709;SDS011;37033;49.994;21.992;2022-07-29T09:27:50;3.70;;;1.30;;
50709;SDS011;37033;49.994;21.992;2022-07-29T09:30:51;4.40;;;1.40;;
50709;SDS011;37033;49.994;21.992;2022-07-29T09:33:42;2.80;;;1.30;;
50709;SDS011;37033;49.994;21.992;2022-07-29T09:36:32;2.30;;;1.30;;
50709;SDS011;37033;49.994;21.992;2022-07-29T09:39:29;1.40;;;1.20;;
50709;SDS011;37033;49.994;21.992;2022-07-29T09:42:28;2.50;;;1.40;;
50709;SDS011;37033;49.994;21.992;2022-07-29T09:45:27;3.30;;;1.50;;
50709;SDS011;37033;49.994;21.992;2022-07-29T09:48:19;11.50;;;1.70;;
50709;SDS011;37033;49.994;21.992;2022-07-29T09:51:20;4.70;;;1.40;;
50709;SDS011;37033;49.994;21.992;2022-07-29T09:57:25;2.10;;;1.50;;
50709;SDS011;37033;49.994;21.992;2022-07-29T10:00:17;4.90;;;1.60;;
50709;SDS011;37033;49.994;21.992;2022-07-29T10:03:09;5.20;;;1.70;;
50709;SDS011;37033;49.994;21.992;2022-07-29T10:06:08;1.60;;;1.10;;
50709;SDS011;37033;49.994;21.992;2022-07-29T10:09:08;4.60;;;1.40;;
50709;SDS011;37033;49.994;21.992;2022-07-29T10:12:06;3.30;;;1.20;;
50709;SDS011;37033;49.994;21.992;2022-07-29T10:14:58;3.80;;;1.30;;
50709;SDS011;37033;49.994;21.992;2022-07-29T10:17:53;5.70;;;1.30;;
50709;SDS011;37033;49.994;21.992;2022-07-29T10:20:44;2.60;;;1.40;;
50709;SDS011;37033;49.994;21.992;2022-07-29T10:23:36;5.20;;;1.30;;
50709;SDS011;37033;49.994;21.992;2022-07-29T10:26:26;4.70;;;1.70;;
50709;SDS011;37033;49.994;21.992;2022-07-29T10:29:17;1.80;;;1.50;;
50709;SDS011;37033;49.994;21.992;2022-07-29T10:32:14;3.60;;;1.50;;
50709;SDS011;37033;49.994;21.992;2022-07-29T10:35:24;5.20;;;1.40;;
50709;SDS011;37033;49.994;21.992;2022-07-29T10:38:30;3.80;;;1.60;;
50709;SDS011;37033;49.994;21.992;2022-07-29T10:41:33;2.30;;;1.10;;
50709;SDS011;37033;49.994;21.992;2022-07-29T10:44:40;3.60;;;1.80;;
50709;SDS011;37033;49.994;21.992;2022-07-29T10:47:32;3.20;;;1.50;;
50709;SDS011;37033;49.994;21.992;2022-07-29T10:50:22;4.00;;;1.50;;
50709;SDS011;37033;49.994;21.992;2022-07-29T10:53:14;10.10;;;1.60;;
50709;SDS011;37033;49.994;21.992;2022-07-29T10:56:04;4.10;;;1.20;;
50709;SDS011;37033;49.994;21.992;2022-07-29T10:59:26;3.50;;;1.30;;
50709;SDS011;37033;49.994;21.992;2022-07-29T11:05:52;8.90;;;1.80;;
50709;SDS011;37033;49.994;21.992;2022-07-29T11:08:44;2.00;;;1.60;;
50709;SDS011;37033;49.994;21.992;2022-07-29T11:11:55;5.40;;;1.40;;
50709;SDS011;37033;49.994;21.992;2022-07-29T11:14:57;9.80;;;1.80;;
50709;SDS011;37033;49.994;21.992;2022-07-29T11:18:05;5.20;;;1.70;;
50709;SDS011;37033;49.994;21.992;2022-07-29T11:20:56;7.40;;;1.60;;
50709;SDS011;37033;49.994;21.992;2022-07-29T11:23:47;2.70;;;1.30;;
50709;SDS011;37033;49.994;21.992;2022-07-29T11:26:37;6.00;;;1.40;;
50709;SDS011;37033;49.994;21.992;2022-07-29T11:29:28;4.20;;;1.60;;
50709;SDS011;37033;49.994;21.992;2022-07-29T11:32:20;3.20;;;1.20;;
50709;SDS011;37033;49.994;21.992;2022-07-29T11:35:12;4.30;;;1.80;;
50709;SDS011;37033;49.994;21.992;2022-07-29T11:41:23;2.30;;;1.70;;
50709;SDS011;37033;49.994;21.992;2022-07-29T11:44:17;3.70;;;1.80;;
50709;SDS011;37033;49.994;21.992;2022-07-29T11:47:28;7.70;;;2.00;;
50709;SDS011;37033;49.994;21.992;2022-07-29T11:50:26;24.40;;;2.50;;
50709;SDS011;37033;49.994;21.992;2022-07-29T11:53:18;4.60;;;1.40;;
50709;SDS011;37033;49.994;21.992;2022-07-29T11:56:09;28.50;;;2.50;;
50709;SDS011;37033;49.994;21.992;2022-07-29T11:59:05;4.40;;;1.50;;
50709;SDS011;37033;49.994;21.992;2022-07-29T12:01:57;10.90;;;1.70;;
50709;SDS011;37033;49.994;21.992;2022-07-29T12:04:50;4.30;;;1.50;;
50709;SDS011;37033;49.994;21.992;2022-07-29T12:07:42;5.00;;;1.40;;
50709;SDS011;37033;49.994;21.992;2022-07-29T12:10:32;4.40;;;1.30;;
50709;SDS011;37033;49.994;21.992;2022-07-29T12:13:23;4.70;;;1.90;;
50709;SDS011;37033;49.994;21.992;2022-07-29T12:16:35;4.60;;;1.70;;
50709;SDS011;37033;49.994;21.992;2022-07-29T12:19:26;2.70;;;1.40;;
50709;SDS011;37033;49.994;21.992;2022-07-29T12:22:19;3.30;;;1.20;;
50709;SDS011;37033;49.994;21.992;2022-07-29T12:25:14;3.90;;;1.60;;
50709;SDS011;37033;49.994;21.992;2022-07-29T12:28:05;3.90;;;1.40;;
50709;SDS011;37033;49.994;21.992;2022-07-29T12:30:57;1.80;;;1.30;;
50709;SDS011;37033;49.994;21.992;2022-07-29T12:33:52;4.80;;;1.40;;
50709;SDS011;37033;49.994;21.992;2022-07-29T12:39:31;1.80;;;1.10;;
50709;SDS011;37033;49.994;21.992;2022-07-29T12:42:24;2.60;;;1.60;;
50709;SDS011;37033;49.994;21.992;2022-07-29T12:45:15;4.60;;;1.60;;
50709;SDS011;37033;49.994;21.992;2022-07-29T12:48:06;4.90;;;1.40;;
50709;SDS011;37033;49.994;21.992;2022-07-29T12:50:57;3.20;;;1.40;;
50709;SDS011;37033;49.994;21.992;2022-07-29T12:54:02;3.00;;;1.50;;
50709;SDS011;37033;49.994;21.992;2022-07-29T12:56:59;2.70;;;1.50;;
50709;SDS011;37033;49.994;21.992;2022-07-29T13:00:01;2.20;;;1.70;;
50709;SDS011;37033;49.994;21.992;2022-07-29T13:02:56;1.60;;;1.30;;
50709;SDS011;37033;49.994;21.992;2022-07-29T13:05:47;2.10;;;1.30;;
50709;SDS011;37033;49.994;21.992;2022-07-29T13:08:37;1.40;;;1.20;;
50709;SDS011;37033;49.994;21.992;2022-07-29T13:11:46;4.40;;;1.80;;
50709;SDS011;37033;49.994;21.992;2022-07-29T13:14:38;5.00;;;1.40;;
50709;SDS011;37033;49.994;21.992;2022-07-29T13:17:30;6.00;;;1.40;;
50709;SDS011;37033;49.994;21.992;2022-07-29T13:20:30;4.10;;;1.70;;
50709;SDS011;37033;49.994;21.992;2022-07-29T13:23:20;1.50;;;1.20;;
50709;SDS011;37033;49.994;21.992;2022-07-29T13:26:11;4.10;;;1.50;;
50709;SDS011;37033;49.994;21.992;2022-07-29T13:29:03;2.00;;;1.60;;
50709;SDS011;37033;49.994;21.992;2022-07-29T13:31:53;2.10;;;1.60;;
50709;SDS011;37033;49.994;21.992;2022-07-29T13:34:44;6.40;;;1.50;;
50709;SDS011;37033;49.994;21.992;2022-07-29T13:37:34;6.10;;;1.80;;
50709;SDS011;37033;49.994;21.992;2022-07-29T13:40:25;4.60;;;1.70;;
50709;SDS011;37033;49.994;21.992;2022-07-29T13:43:17;4.70;;;1.40;;
50709;SDS011;37033;49.994;21.992;2022-07-29T13:46:07;3.20;;;1.40;;
50709;SDS011;37033;49.994;21.992;2022-07-29T13:48:58;4.10;;;1.60;;
50709;SDS011;37033;49.994;21.992;2022-07-29T13:51:49;7.90;;;2.80;;
50709;SDS011;37033;49.994;21.992;2022-07-29T13:54:39;4.20;;;1.60;;
50709;SDS011;37033;49.994;21.992;2022-07-29T13:57:30;4.00;;;1.30;;
50709;SDS011;37033;49.994;21.992;2022-07-29T14:00:21;5.10;;;1.10;;
50709;SDS011;37033;49.994;21.992;2022-07-29T14:03:12;2.60;;;1.50;;
50709;SDS011;37033;49.994;21.992;2022-07-29T14:06:03;4.70;;;1.40;;
50709;SDS011;37033;49.994;21.992;2022-07-29T14:08:54;4.60;;;1.60;;
50709;SDS011;37033;49.994;21.992;2022-07-29T14:11:44;4.40;;;1.90;;
50709;SDS011;37033;49.994;21.992;2022-07-29T14:14:37;5.60;;;2.20;;
50709;SDS011;37033;49.994;21.992;2022-07-29T14:17:28;2.40;;;1.80;;
50709;SDS011;37033;49.994;21.992;2022-07-29T14:20:18;6.20;;;1.70;;
50709;SDS011;37033;49.994;21.992;2022-07-29T14:23:09;2.60;;;2.00;;
50709;SDS011;37033;49.994;21.992;2022-07-29T14:25:59;4.50;;;1.70;;
50709;SDS011;37033;49.994;21.992;2022-07-29T14:28:50;2.30;;;1.50;;
50709;SDS011;37033;49.994;21.992;2022-07-29T14:31:40;3.90;;;1.60;;
50709;SDS011;37033;49.994;21.992;2022-07-29T14:34:30;5.80;;;1.30;;
50709;SDS011;37033;49.994;21.992;2022-07-29T14:37:20;1.30;;;1.20;;
50709;SDS011;37033;49.994;21.992;2022-07-29T14:40:11;1.60;;;1.20;;
50709;SDS011;37033;49.994;21.992;2022-07-29T14:43:01;6.90;;;1.70;;
50709;SDS011;37033;49.994;21.992;2022-07-29T14:45:51;2.20;;;1.30;;
50709;SDS011;37033;49.994;21.992;2022-07-29T14:48:41;2.70;;;1.40;;
50709;SDS011;37033;49.994;21.992;2022-07-29T14:51:32;2.80;;;1.40;;
50709;SDS011;37033;49.994;21.992;2022-07-29T14:54:22;3.40;;;2.60;;
50709;SDS011;37033;49.994;21.992;2022-07-29T14:57:12;2.10;;;1.80;;
50709;SDS011;37033;49.994;21.992;2022-07-29T15:00:04;2.50;;;1.70;;
50709;SDS011;37033;49.994;21.992;2022-07-29T15:02:56;4.30;;;1.30;;
50709;SDS011;37033;49.994;21.992;2022-07-29T15:05:46;3.00;;;1.40;;
50709;SDS011;37033;49.994;21.992;2022-07-29T15:08:37;3.50;;;1.20;;
50709;SDS011;37033;49.994;21.992;2022-07-29T15:11:26;4.40;;;1.60;;
50709;SDS011;37033;49.994;21.992;2022-07-29T15:14:17;4.20;;;1.60;;
50709;SDS011;37033;49.994;21.992;2022-07-29T15:17:07;5.90;;;1.90;;
50709;SDS011;37033;49.994;21.992;2022-07-29T15:19:58;5.10;;;1.40;;
50709;SDS011;37033;49.994;21.992;2022-07-29T15:22:48;3.60;;;1.50;;
50709;SDS011;37033;49.994;21.992;2022-07-29T15:25:38;2.10;;;1.70;;
50709;SDS011;37033;49.994;21.992;2022-07-29T15:28:29;5.80;;;1.70;;
50709;SDS011;37033;49.994;21.992;2022-07-29T15:31:20;2.80;;;1.40;;
50709;SDS011;37033;49.994;21.992;2022-07-29T15:34:10;2.10;;;1.80;;
50709;SDS011;37033;49.994;21.992;2022-07-29T15:37:02;5.60;;;2.20;;
50709;SDS011;37033;49.994;21.992;2022-07-29T15:39:53;2.10;;;1.40;;
50709;SDS011;37033;49.994;21.992;2022-07-29T15:42:44;6.60;;;1.50;;
50709;SDS011;37033;49.994;21.992;2022-07-29T15:45:36;4.90;;;2.10;;
50709;SDS011;37033;49.994;21.992;2022-07-29T15:48:27;4.30;;;2.40;;
50709;SDS011;37033;49.994;21.992;2022-07-29T15:51:18;2.90;;;1.80;;
50709;SDS011;37033;49.994;21.992;2022-07-29T15:54:08;3.90;;;2.10;;
50709;SDS011;37033;49.994;21.992;2022-07-29T15:56:59;3.90;;;1.50;;
50709;SDS011;37033;49.994;21.992;2022-07-29T15:59:49;1.60;;;1.20;;
50709;SDS011;37033;49.994;21.992;2022-07-29T16:02:41;3.80;;;1.80;;
50709;SDS011;37033;49.994;21.992;2022-07-29T16:05:31;3.30;;;1.60;;
50709;SDS011;37033;49.994;21.992;2022-07-29T16:08:21;4.20;;;2.00;;
50709;SDS011;37033;49.994;21.992;2022-07-29T16:11:12;5.00;;;3.00;;
50709;SDS011;37033;49.994;21.992;2022-07-29T16:14:02;7.50;;;3.50;;
50709;SDS011;37033;49.994;21.992;2022-07-29T16:16:53;4.40;;;1.60;;
50709;SDS011;37033;49.994;21.992;2022-07-29T16:19:43;5.70;;;1.90;;
50709;SDS011;37033;49.994;21.992;2022-07-29T16:22:34;3.20;;;1.80;;
50709;SDS011;37033;49.994;21.992;2022-07-29T16:25:24;2.60;;;2.00;;
50709;SDS011;37033;49.994;21.992;2022-07-29T16:28:14;3.00;;;1.60;;
50709;SDS011;37033;49.994;21.992;2022-07-29T16:31:05;4.90;;;1.50;;
50709;SDS011;37033;49.994;21.992;2022-07-29T16:33:55;8.60;;;1.90;;
50709;SDS011;37033;49.994;21.992;2022-07-29T16:36:45;5.70;;;1.80;;
50709;SDS011;37033;49.994;21.992;2022-07-29T16:39:35;9.80;;;2.00;;
50709;SDS011;37033;49.994;21.992;2022-07-29T16:42:25;6.20;;;2.10;;
50709;SDS011;37033;49.994;21.992;2022-07-29T16:45:16;6.30;;;2.00;;
50709;SDS011;37033;49.994;21.992;2022-07-29T16:48:06;4.00;;;1.60;;
50709;SDS011;37033;49.994;21.992;2022-07-29T16:50:57;8.10;;;2.20;;
50709;SDS011;37033;49.994;21.992;2022-07-29T16:53:47;11.10;;;2.30;;
50709;SDS011;37033;49.994;21.992;2022-07-29T16:56:37;8.50;;;2.10;;
50709;SDS011;37033;49.994;21.992;2022-07-29T16:59:27;3.30;;;1.90;;
50709;SDS011;37033;49.994;21.992;2022-07-29T17:02:18;5.20;;;2.30;;
50709;SDS011;37033;49.994;21.992;2022-07-29T17:05:09;6.70;;;2.30;;
50709;SDS011;37033;49.994;21.992;2022-07-29T17:07:59;6.70;;;2.10;;
50709;SDS011;37033;49.994;21.992;2022-07-29T17:10:50;3.60;;;2.30;;
50709;SDS011;37033;49.994;21.992;2022-07-29T17:13:40;2.70;;;2.20;;
50709;SDS011;37033;49.994;21.992;2022-07-29T17:16:31;6.80;;;6.10;;
50709;SDS011;37033;49.994;21.992;2022-07-29T17:19:22;4.70;;;2.60;;